sensor_id;sensor_type;location;lat;lon;timestamp;P1;durP1;ratioP1;P2;durP2;ratioP2
71902;SDS011;59778;50.310;18.780;2022-12-10T00:11:34;35.03;;;17.73;;
71902;SDS011;59778;50.310;18.780;2022-12-10T00:26:55;31.27;;;15.43;;
71902;SDS011;59778;50.310;18.780;2022-12-10T00:42:16;33.30;;;15.07;;
71902;SDS011;59778;50.310;18.780;2022-12-10T00:57:37;28.87;;;12.97;;
71902;SDS011;59778;50.310;18.780;2022-12-10T01:12:59;31.13;;;15.50;;
71902;SDS011;59778;50.310;18.780;2022-12-10T01:28:20;27.53;;;13.83;;
71902;SDS011;59778;50.310;18.780;2022-12-10T01:43:48;25.03;;;12.93;;
71902;SDS011;59778;50.310;18.780;2022-12-10T01:59:22;21.43;;;11.20;;
71902;SDS011;59778;50.310;18.780;2022-12-10T02:30:17;19.97;;;9.37;;
71902;SDS011;59778;50.310;18.780;2022-12-10T02:45:39;26.83;;;11.13;;
71902;SDS011;59778;50.310;18.780;2022-12-10T03:01:06;23.90;;;10.90;;
71902;SDS011;59778;50.310;18.780;2022-12-10T03:16:41;22.40;;;10.73;;
71902;SDS011;59778;50.310;18.780;2022-12-10T03:32:04;24.10;;;12.13;;
71902;SDS011;59778;50.310;18.780;2022-12-10T03:47:26;25.87;;;12.33;;
71902;SDS011;59778;50.310;18.780;2022-12-10T04:02:48;25.30;;;12.03;;
71902;SDS011;59778;50.310;18.780;2022-12-10T04:18:09;26.50;;;12.47;;
71902;SDS011;59778;50.310;18.780;2022-12-10T04:33:30;32.23;;;12.47;;
71902;SDS011;59778;50.310;18.780;2022-12-10T04:48:51;36.03;;;15.63;;
71902;SDS011;59778;50.310;18.780;2022-12-10T05:04:14;30.80;;;14.23;;
71902;SDS011;59778;50.310;18.780;2022-12-10T05:19:37;40.23;;;16.00;;
71902;SDS011;59778;50.310;18.780;2022-12-10T05:34:58;30.47;;;14.87;;
71902;SDS011;59778;50.310;18.780;2022-12-10T05:50:20;34.90;;;14.60;;
71902;SDS011;59778;50.310;18.780;2022-12-10T06:05:41;41.57;;;14.67;;
71902;SDS011;59778;50.310;18.780;2022-12-10T06:21:03;37.57;;;15.80;;
71902;SDS011;59778;50.310;18.780;2022-12-10T06:36:25;34.20;;;14.50;;
71902;SDS011;59778;50.310;18.780;2022-12-10T06:51:47;35.87;;;14.53;;
71902;SDS011;59778;50.310;18.780;2022-12-10T07:07:08;33.77;;;15.27;;
71902;SDS011;59778;50.310;18.780;2022-12-10T07:22:29;43.33;;;17.40;;
71902;SDS011;59778;50.310;18.780;2022-12-10T07:37:51;35.97;;;14.93;;
71902;SDS011;59778;50.310;18.780;2022-12-10T07:53:12;46.13;;;19.30;;
71902;SDS011;59778;50.310;18.780;2022-12-10T08:08:34;48.60;;;19.87;;
71902;SDS011;59778;50.310;18.780;2022-12-10T08:23:56;48.60;;;18.10;;
71902;SDS011;59778;50.310;18.780;2022-12-10T08:39:18;47.43;;;19.17;;
71902;SDS011;59778;50.310;18.780;2022-12-10T08:54:39;54.30;;;19.10;;
71902;SDS011;59778;50.310;18.780;2022-12-10T09:10:00;49.57;;;18.57;;
71902;SDS011;59778;50.310;18.780;2022-12-10T09:25:22;52.93;;;18.97;;
71902;SDS011;59778;50.310;18.780;2022-12-10T09:40:45;69.10;;;26.13;;
71902;SDS011;59778;50.310;18.780;2022-12-10T09:56:22;51.90;;;21.37;;
71902;SDS011;59778;50.310;18.780;2022-12-10T10:11:46;65.20;;;25.90;;
71902;SDS011;59778;50.310;18.780;2022-12-10T10:27:15;65.83;;;26.03;;
71902;SDS011;59778;50.310;18.780;2022-12-10T10:42:40;76.07;;;29.07;;
71902;SDS011;59778;50.310;18.780;2022-12-10T10:58:04;56.27;;;25.27;;
71902;SDS011;59778;50.310;18.780;2022-12-10T11:13:27;80.67;;;32.23;;
71902;SDS011;59778;50.310;18.780;2022-12-10T11:28:54;58.77;;;23.57;;
71902;SDS011;59778;50.310;18.780;2022-12-10T11:44:39;93.97;;;35.23;;
71902;SDS011;59778;50.310;18.780;2022-12-10T12:00:23;62.60;;;22.43;;
71902;SDS011;59778;50.310;18.780;2022-12-10T12:15:49;57.47;;;21.47;;
71902;SDS011;59778;50.310;18.780;2022-12-10T12:31:18;56.37;;;23.67;;
71902;SDS011;59778;50.310;18.780;2022-12-10T12:46:43;71.67;;;24.13;;
71902;SDS011;59778;50.310;18.780;2022-12-10T13:02:21;93.70;;;32.47;;
71902;SDS011;59778;50.310;18.780;2022-12-10T13:33:25;120.67;;;38.90;;
71902;SDS011;59778;50.310;18.780;2022-12-10T13:49:12;77.07;;;25.63;;
71902;SDS011;59778;50.310;18.780;2022-12-10T14:04:57;129.17;;;41.67;;
71902;SDS011;59778;50.310;18.780;2022-12-10T14:20:29;89.73;;;27.33;;
71902;SDS011;59778;50.310;18.780;2022-12-10T14:35:53;83.80;;;30.43;;
71902;SDS011;59778;50.310;18.780;2022-12-10T14:51:15;111.87;;;39.63;;
71902;SDS011;59778;50.310;18.780;2022-12-10T15:06:39;65.23;;;20.77;;
71902;SDS011;59778;50.310;18.780;2022-12-10T15:22:11;74.13;;;22.00;;
71902;SDS011;59778;50.310;18.780;2022-12-10T15:37:38;72.20;;;26.73;;
71902;SDS011;59778;50.310;18.780;2022-12-10T15:53:00;93.60;;;34.30;;
71902;SDS011;59778;50.310;18.780;2022-12-10T16:08:23;74.17;;;22.80;;
71902;SDS011;59778;50.310;18.780;2022-12-10T16:23:49;87.33;;;30.87;;
71902;SDS011;59778;50.310;18.780;2022-12-10T16:39:10;51.37;;;18.43;;
71902;SDS011;59778;50.310;18.780;2022-12-10T16:54:32;64.30;;;22.50;;
71902;SDS011;59778;50.310;18.780;2022-12-10T17:09:53;68.97;;;23.70;;
71902;SDS011;59778;50.310;18.780;2022-12-10T17:25:15;68.10;;;23.03;;
71902;SDS011;59778;50.310;18.780;2022-12-10T17:40:36;93.27;;;35.07;;
71902;SDS011;59778;50.310;18.780;2022-12-10T17:55:58;77.80;;;27.17;;
71902;SDS011;59778;50.310;18.780;2022-12-10T18:11:38;62.90;;;23.73;;
71902;SDS011;59778;50.310;18.780;2022-12-10T18:27:03;68.17;;;23.57;;
71902;SDS011;59778;50.310;18.780;2022-12-10T18:42:24;62.50;;;23.97;;
71902;SDS011;59778;50.310;18.780;2022-12-10T18:57:45;92.60;;;29.83;;
71902;SDS011;59778;50.310;18.780;2022-12-10T19:13:07;176.87;;;51.33;;
71902;SDS011;59778;50.310;18.780;2022-12-10T19:28:28;89.23;;;34.33;;
71902;SDS011;59778;50.310;18.780;2022-12-10T19:43:50;63.27;;;24.83;;
71902;SDS011;59778;50.310;18.780;2022-12-10T19:59:14;98.80;;;40.13;;
71902;SDS011;59778;50.310;18.780;2022-12-10T20:14:37;52.10;;;21.57;;
71902;SDS011;59778;50.310;18.780;2022-12-10T20:29:59;49.13;;;21.97;;
71902;SDS011;59778;50.310;18.780;2022-12-10T20:45:21;50.33;;;20.30;;
71902;SDS011;59778;50.310;18.780;2022-12-10T21:00:42;37.40;;;15.33;;
71902;SDS011;59778;50.310;18.780;2022-12-10T21:16:03;47.70;;;18.50;;
71902;SDS011;59778;50.310;18.780;2022-12-10T21:31:25;33.87;;;12.97;;
71902;SDS011;59778;50.310;18.780;2022-12-10T21:46:46;30.37;;;11.47;;
71902;SDS011;59778;50.310;18.780;2022-12-10T22:02:08;34.67;;;14.03;;
71902;SDS011;59778;50.310;18.780;2022-12-10T22:17:30;36.00;;;13.40;;
71902;SDS011;59778;50.310;18.780;2022-12-10T22:32:52;38.07;;;13.17;;
71902;SDS011;59778;50.310;18.780;2022-12-10T22:48:14;30.93;;;11.37;;
71902;SDS011;59778;50.310;18.780;2022-12-10T23:03:35;30.90;;;10.87;;
71902;SDS011;59778;50.310;18.780;2022-12-10T23:18:56;34.23;;;13.27;;
71902;SDS011;59778;50.310;18.780;2022-12-10T23:34:17;28.83;;;11.00;;
71902;SDS011;59778;50.310;18.780;2022-12-10T23:49:39;30.53;;;12.47;;
